sensor_id;sensor_type;location;lat;lon;timestamp;P1;durP1;ratioP1;P2;durP2;ratioP2
68803;SDS011;55787;52.678;13.314;2023-04-01T00:01:44;14.65;;;4.60;;
68803;SDS011;55787;52.678;13.314;2023-04-01T00:04:11;12.25;;;4.30;;
68803;SDS011;55787;52.678;13.314;2023-04-01T00:06:37;11.95;;;4.28;;
68803;SDS011;55787;52.678;13.314;2023-04-01T00:09:04;12.68;;;4.70;;
68803;SDS011;55787;52.678;13.314;2023-04-01T00:11:31;13.38;;;4.50;;
68803;SDS011;55787;52.678;13.314;2023-04-01T00:13:58;11.95;;;4.60;;
68803;SDS011;55787;52.678;13.314;2023-04-01T00:16:25;12.88;;;4.47;;
68803;SDS011;55787;52.678;13.314;2023-04-01T00:18:52;11.32;;;4.25;;
68803;SDS011;55787;52.678;13.314;2023-04-01T00:21:19;10.95;;;4.38;;
68803;SDS011;55787;52.678;13.314;2023-04-01T00:23:46;13.30;;;4.63;;
68803;SDS011;55787;52.678;13.314;2023-04-01T00:26:13;10.73;;;4.30;;
68803;SDS011;55787;52.678;13.314;2023-04-01T00:28:41;12.00;;;4.13;;
68803;SDS011;55787;52.678;13.314;2023-04-01T00:31:08;12.63;;;4.13;;
68803;SDS011;55787;52.678;13.314;2023-04-01T00:33:36;10.80;;;4.00;;
68803;SDS011;55787;52.678;13.314;2023-04-01T00:36:08;11.10;;;4.10;;
68803;SDS011;55787;52.678;13.314;2023-04-01T00:38:38;11.13;;;4.10;;
68803;SDS011;55787;52.678;13.314;2023-04-01T00:41:06;12.73;;;4.32;;
68803;SDS011;55787;52.678;13.314;2023-04-01T00:43:33;10.57;;;3.70;;
68803;SDS011;55787;52.678;13.314;2023-04-01T00:46:00;10.05;;;3.50;;
68803;SDS011;55787;52.678;13.314;2023-04-01T00:48:31;11.30;;;4.18;;
68803;SDS011;55787;52.678;13.314;2023-04-01T00:51:03;14.52;;;4.10;;
68803;SDS011;55787;52.678;13.314;2023-04-01T00:53:33;11.63;;;4.10;;
68803;SDS011;55787;52.678;13.314;2023-04-01T00:56:04;13.73;;;4.35;;
68803;SDS011;55787;52.678;13.314;2023-04-01T00:58:48;11.63;;;3.70;;
68803;SDS011;55787;52.678;13.314;2023-04-01T01:01:18;10.30;;;3.70;;
68803;SDS011;55787;52.678;13.314;2023-04-01T01:03:48;11.57;;;3.80;;
68803;SDS011;55787;52.678;13.314;2023-04-01T01:31:20;9.52;;;3.47;;
68803;SDS011;55787;52.678;13.314;2023-04-01T01:36:50;12.23;;;3.63;;
68803;SDS011;55787;52.678;13.314;2023-04-01T01:39:23;11.43;;;3.42;;
68803;SDS011;55787;52.678;13.314;2023-04-01T01:41:59;10.25;;;3.80;;
68803;SDS011;55787;52.678;13.314;2023-04-01T01:44:29;11.60;;;4.07;;
68803;SDS011;55787;52.678;13.314;2023-04-01T01:46:57;10.50;;;3.55;;
68803;SDS011;55787;52.678;13.314;2023-04-01T01:49:24;10.67;;;3.70;;
68803;SDS011;55787;52.678;13.314;2023-04-01T01:51:52;10.63;;;3.40;;
68803;SDS011;55787;52.678;13.314;2023-04-01T01:54:19;10.02;;;3.17;;
68803;SDS011;55787;52.678;13.314;2023-04-01T01:56:46;12.57;;;3.45;;
68803;SDS011;55787;52.678;13.314;2023-04-01T01:59:17;11.68;;;3.75;;
68803;SDS011;55787;52.678;13.314;2023-04-01T02:01:49;9.70;;;3.57;;
68803;SDS011;55787;52.678;13.314;2023-04-01T02:04:18;11.82;;;3.40;;
68803;SDS011;55787;52.678;13.314;2023-04-01T02:06:47;11.63;;;3.72;;
68803;SDS011;55787;52.678;13.314;2023-04-01T02:09:19;13.23;;;3.67;;
68803;SDS011;55787;52.678;13.314;2023-04-01T02:11:57;13.32;;;4.20;;
68803;SDS011;55787;52.678;13.314;2023-04-01T02:14:33;10.70;;;3.55;;
68803;SDS011;55787;52.678;13.314;2023-04-01T02:17:07;12.95;;;3.90;;
68803;SDS011;55787;52.678;13.314;2023-04-01T02:19:41;12.50;;;4.00;;
68803;SDS011;55787;52.678;13.314;2023-04-01T02:22:14;11.95;;;3.90;;
68803;SDS011;55787;52.678;13.314;2023-04-01T02:24:45;11.07;;;4.13;;
68803;SDS011;55787;52.678;13.314;2023-04-01T02:27:12;12.77;;;3.80;;
68803;SDS011;55787;52.678;13.314;2023-04-01T02:29:39;11.95;;;3.65;;
68803;SDS011;55787;52.678;13.314;2023-04-01T02:32:06;11.40;;;4.00;;
68803;SDS011;55787;52.678;13.314;2023-04-01T02:34:33;11.70;;;4.05;;
68803;SDS011;55787;52.678;13.314;2023-04-01T02:37:00;11.65;;;3.65;;
68803;SDS011;55787;52.678;13.314;2023-04-01T02:39:27;17.13;;;4.22;;
68803;SDS011;55787;52.678;13.314;2023-04-01T02:41:54;12.32;;;3.90;;
68803;SDS011;55787;52.678;13.314;2023-04-01T02:44:21;11.63;;;3.88;;
68803;SDS011;55787;52.678;13.314;2023-04-01T02:46:47;12.05;;;4.10;;
68803;SDS011;55787;52.678;13.314;2023-04-01T02:49:14;10.23;;;3.83;;
68803;SDS011;55787;52.678;13.314;2023-04-01T02:51:41;12.25;;;4.00;;
68803;SDS011;55787;52.678;13.314;2023-04-01T02:54:07;10.73;;;3.80;;
68803;SDS011;55787;52.678;13.314;2023-04-01T02:56:34;12.77;;;3.70;;
68803;SDS011;55787;52.678;13.314;2023-04-01T02:59:00;9.57;;;3.25;;
68803;SDS011;55787;52.678;13.314;2023-04-01T03:01:27;11.02;;;3.50;;
68803;SDS011;55787;52.678;13.314;2023-04-01T03:03:54;12.63;;;3.88;;
68803;SDS011;55787;52.678;13.314;2023-04-01T03:06:20;11.65;;;3.95;;
68803;SDS011;55787;52.678;13.314;2023-04-01T03:08:47;12.85;;;3.90;;
68803;SDS011;55787;52.678;13.314;2023-04-01T03:11:13;16.27;;;3.72;;
68803;SDS011;55787;52.678;13.314;2023-04-01T03:13:40;11.82;;;3.95;;
68803;SDS011;55787;52.678;13.314;2023-04-01T03:16:07;13.13;;;4.10;;
68803;SDS011;55787;52.678;13.314;2023-04-01T03:18:33;11.73;;;3.70;;
68803;SDS011;55787;52.678;13.314;2023-04-01T03:21:13;11.27;;;3.92;;
68803;SDS011;55787;52.678;13.314;2023-04-01T03:23:45;11.55;;;4.07;;
68803;SDS011;55787;52.678;13.314;2023-04-01T03:26:11;14.13;;;4.28;;
68803;SDS011;55787;52.678;13.314;2023-04-01T03:28:38;11.15;;;3.83;;
68803;SDS011;55787;52.678;13.314;2023-04-01T03:31:05;12.18;;;3.80;;
68803;SDS011;55787;52.678;13.314;2023-04-01T03:33:32;11.25;;;3.70;;
68803;SDS011;55787;52.678;13.314;2023-04-01T03:35:59;11.35;;;3.60;;
68803;SDS011;55787;52.678;13.314;2023-04-01T03:38:26;11.27;;;3.60;;
68803;SDS011;55787;52.678;13.314;2023-04-01T03:40:52;11.77;;;3.63;;
68803;SDS011;55787;52.678;13.314;2023-04-01T03:43:19;12.07;;;3.42;;
68803;SDS011;55787;52.678;13.314;2023-04-01T03:45:47;11.68;;;3.50;;
68803;SDS011;55787;52.678;13.314;2023-04-01T03:48:14;14.02;;;4.40;;
68803;SDS011;55787;52.678;13.314;2023-04-01T03:50:41;12.10;;;3.72;;
68803;SDS011;55787;52.678;13.314;2023-04-01T03:53:08;12.18;;;3.75;;
68803;SDS011;55787;52.678;13.314;2023-04-01T03:55:36;11.10;;;4.00;;
68803;SDS011;55787;52.678;13.314;2023-04-01T03:58:03;12.40;;;4.03;;
68803;SDS011;55787;52.678;13.314;2023-04-01T04:00:30;11.40;;;3.90;;
68803;SDS011;55787;52.678;13.314;2023-04-01T04:02:58;14.20;;;4.22;;
68803;SDS011;55787;52.678;13.314;2023-04-01T04:05:29;15.25;;;4.10;;
68803;SDS011;55787;52.678;13.314;2023-04-01T04:07:56;14.48;;;4.40;;
68803;SDS011;55787;52.678;13.314;2023-04-01T04:10:22;13.27;;;4.38;;
68803;SDS011;55787;52.678;13.314;2023-04-01T04:12:51;17.10;;;4.70;;
68803;SDS011;55787;52.678;13.314;2023-04-01T04:15:18;11.80;;;4.57;;
68803;SDS011;55787;52.678;13.314;2023-04-01T04:17:45;14.48;;;4.65;;
68803;SDS011;55787;52.678;13.314;2023-04-01T04:20:12;15.50;;;4.13;;
68803;SDS011;55787;52.678;13.314;2023-04-01T04:22:39;14.25;;;4.40;;
68803;SDS011;55787;52.678;13.314;2023-04-01T04:25:06;13.82;;;4.35;;
68803;SDS011;55787;52.678;13.314;2023-04-01T04:27:33;13.07;;;4.22;;
68803;SDS011;55787;52.678;13.314;2023-04-01T04:30:01;14.15;;;4.07;;
68803;SDS011;55787;52.678;13.314;2023-04-01T04:32:28;14.80;;;4.55;;
68803;SDS011;55787;52.678;13.314;2023-04-01T04:34:56;12.50;;;4.25;;
68803;SDS011;55787;52.678;13.314;2023-04-01T04:37:23;14.77;;;3.78;;
68803;SDS011;55787;52.678;13.314;2023-04-01T04:39:49;13.75;;;4.53;;
68803;SDS011;55787;52.678;13.314;2023-04-01T04:42:16;13.98;;;3.90;;
68803;SDS011;55787;52.678;13.314;2023-04-01T04:44:42;14.18;;;3.65;;
68803;SDS011;55787;52.678;13.314;2023-04-01T04:47:09;15.07;;;4.78;;
68803;SDS011;55787;52.678;13.314;2023-04-01T04:49:36;13.70;;;4.75;;
68803;SDS011;55787;52.678;13.314;2023-04-01T04:52:03;14.80;;;4.15;;
68803;SDS011;55787;52.678;13.314;2023-04-01T04:54:29;12.93;;;4.35;;
68803;SDS011;55787;52.678;13.314;2023-04-01T04:56:56;13.30;;;4.60;;
68803;SDS011;55787;52.678;13.314;2023-04-01T04:59:22;15.55;;;4.43;;
68803;SDS011;55787;52.678;13.314;2023-04-01T05:01:49;13.88;;;4.88;;
68803;SDS011;55787;52.678;13.314;2023-04-01T05:04:16;15.15;;;4.30;;
68803;SDS011;55787;52.678;13.314;2023-04-01T05:06:43;14.65;;;4.22;;
68803;SDS011;55787;52.678;13.314;2023-04-01T05:09:10;13.32;;;4.22;;
68803;SDS011;55787;52.678;13.314;2023-04-01T05:11:37;13.45;;;4.18;;
68803;SDS011;55787;52.678;13.314;2023-04-01T05:14:04;12.65;;;4.32;;
68803;SDS011;55787;52.678;13.314;2023-04-01T05:16:30;14.38;;;4.43;;
68803;SDS011;55787;52.678;13.314;2023-04-01T05:18:58;13.90;;;4.18;;
68803;SDS011;55787;52.678;13.314;2023-04-01T05:21:25;16.15;;;4.60;;
68803;SDS011;55787;52.678;13.314;2023-04-01T05:23:51;14.23;;;4.78;;
68803;SDS011;55787;52.678;13.314;2023-04-01T05:26:18;12.68;;;4.22;;
68803;SDS011;55787;52.678;13.314;2023-04-01T05:28:44;11.90;;;4.32;;
68803;SDS011;55787;52.678;13.314;2023-04-01T05:31:11;19.77;;;5.60;;
68803;SDS011;55787;52.678;13.314;2023-04-01T05:33:38;20.40;;;6.72;;
68803;SDS011;55787;52.678;13.314;2023-04-01T05:36:05;17.73;;;6.55;;
68803;SDS011;55787;52.678;13.314;2023-04-01T05:38:42;21.13;;;6.57;;
68803;SDS011;55787;52.678;13.314;2023-04-01T05:41:11;19.20;;;6.45;;
68803;SDS011;55787;52.678;13.314;2023-04-01T05:43:39;18.33;;;6.03;;
68803;SDS011;55787;52.678;13.314;2023-04-01T05:46:06;18.17;;;5.82;;
68803;SDS011;55787;52.678;13.314;2023-04-01T05:48:33;15.65;;;5.63;;
68803;SDS011;55787;52.678;13.314;2023-04-01T05:51:03;16.77;;;6.05;;
68803;SDS011;55787;52.678;13.314;2023-04-01T05:53:31;15.52;;;5.63;;
68803;SDS011;55787;52.678;13.314;2023-04-01T05:56:01;17.57;;;6.03;;
68803;SDS011;55787;52.678;13.314;2023-04-01T05:58:29;16.55;;;6.07;;
68803;SDS011;55787;52.678;13.314;2023-04-01T06:01:05;16.90;;;5.68;;
68803;SDS011;55787;52.678;13.314;2023-04-01T06:03:41;17.13;;;5.80;;
68803;SDS011;55787;52.678;13.314;2023-04-01T06:06:27;17.33;;;6.35;;
68803;SDS011;55787;52.678;13.314;2023-04-01T06:08:56;14.52;;;5.47;;
68803;SDS011;55787;52.678;13.314;2023-04-01T06:24:59;15.23;;;4.90;;
68803;SDS011;55787;52.678;13.314;2023-04-01T06:27:39;16.08;;;4.85;;
68803;SDS011;55787;52.678;13.314;2023-04-01T06:33:23;14.25;;;4.30;;
68803;SDS011;55787;52.678;13.314;2023-04-01T06:36:14;14.45;;;4.15;;
68803;SDS011;55787;52.678;13.314;2023-04-01T06:46:40;14.48;;;4.10;;
68803;SDS011;55787;52.678;13.314;2023-04-01T06:54:40;10.65;;;3.70;;
68803;SDS011;55787;52.678;13.314;2023-04-01T07:00:27;13.18;;;4.25;;
68803;SDS011;55787;52.678;13.314;2023-04-01T07:03:18;10.52;;;3.00;;
68803;SDS011;55787;52.678;13.314;2023-04-01T07:05:46;10.25;;;3.13;;
68803;SDS011;55787;52.678;13.314;2023-04-01T07:08:13;9.43;;;2.88;;
68803;SDS011;55787;52.678;13.314;2023-04-01T07:13:36;9.35;;;3.05;;
68803;SDS011;55787;52.678;13.314;2023-04-01T07:16:11;9.68;;;3.22;;
68803;SDS011;55787;52.678;13.314;2023-04-01T07:18:42;12.73;;;3.88;;
68803;SDS011;55787;52.678;13.314;2023-04-01T07:21:20;12.18;;;4.05;;
68803;SDS011;55787;52.678;13.314;2023-04-01T07:23:51;12.48;;;3.75;;
68803;SDS011;55787;52.678;13.314;2023-04-01T07:26:22;10.73;;;3.38;;
68803;SDS011;55787;52.678;13.314;2023-04-01T07:28:51;11.67;;;3.50;;
68803;SDS011;55787;52.678;13.314;2023-04-01T07:33:54;11.30;;;3.60;;
68803;SDS011;55787;52.678;13.314;2023-04-01T07:36:36;12.50;;;4.05;;
68803;SDS011;55787;52.678;13.314;2023-04-01T07:39:18;11.32;;;3.92;;
68803;SDS011;55787;52.678;13.314;2023-04-01T07:42:00;10.38;;;3.50;;
68803;SDS011;55787;52.678;13.314;2023-04-01T07:44:41;11.80;;;3.42;;
68803;SDS011;55787;52.678;13.314;2023-04-01T08:07:20;11.32;;;3.78;;
68803;SDS011;55787;52.678;13.314;2023-04-01T08:18:39;10.85;;;4.05;;
68803;SDS011;55787;52.678;13.314;2023-04-01T08:21:18;12.88;;;4.28;;
68803;SDS011;55787;52.678;13.314;2023-04-01T08:23:48;12.55;;;4.50;;
68803;SDS011;55787;52.678;13.314;2023-04-01T08:29:11;12.50;;;4.60;;
68803;SDS011;55787;52.678;13.314;2023-04-01T08:34:28;13.80;;;4.63;;
68803;SDS011;55787;52.678;13.314;2023-04-01T08:37:25;12.20;;;4.70;;
68803;SDS011;55787;52.678;13.314;2023-04-01T08:39:56;12.30;;;4.50;;
68803;SDS011;55787;52.678;13.314;2023-04-01T08:42:49;12.32;;;4.60;;
68803;SDS011;55787;52.678;13.314;2023-04-01T08:45:43;14.77;;;5.53;;
68803;SDS011;55787;52.678;13.314;2023-04-01T08:48:25;12.90;;;5.40;;
68803;SDS011;55787;52.678;13.314;2023-04-01T08:57:08;12.57;;;5.15;;
68803;SDS011;55787;52.678;13.314;2023-04-01T09:05:22;12.45;;;5.53;;
68803;SDS011;55787;52.678;13.314;2023-04-01T09:11:13;12.80;;;5.22;;
68803;SDS011;55787;52.678;13.314;2023-04-01T09:16:36;15.95;;;5.93;;
68803;SDS011;55787;52.678;13.314;2023-04-01T09:19:14;13.37;;;5.30;;
68803;SDS011;55787;52.678;13.314;2023-04-01T09:27:27;13.13;;;5.25;;
68803;SDS011;55787;52.678;13.314;2023-04-01T09:30:31;12.70;;;5.40;;
68803;SDS011;55787;52.678;13.314;2023-04-01T09:33:24;11.90;;;4.50;;
68803;SDS011;55787;52.678;13.314;2023-04-01T09:38:58;13.40;;;5.43;;
68803;SDS011;55787;52.678;13.314;2023-04-01T09:44:35;11.57;;;4.90;;
68803;SDS011;55787;52.678;13.314;2023-04-01T10:23:52;9.50;;;4.05;;
68803;SDS011;55787;52.678;13.314;2023-04-01T10:29:54;9.38;;;3.80;;
68803;SDS011;55787;52.678;13.314;2023-04-01T10:36:04;10.32;;;4.07;;
68803;SDS011;55787;52.678;13.314;2023-04-01T10:53:10;8.57;;;3.08;;
68803;SDS011;55787;52.678;13.314;2023-04-01T11:04:56;9.60;;;3.72;;
68803;SDS011;55787;52.678;13.314;2023-04-01T11:27:13;10.32;;;3.78;;
68803;SDS011;55787;52.678;13.314;2023-04-01T11:29:45;9.93;;;3.80;;
68803;SDS011;55787;52.678;13.314;2023-04-01T11:32:42;10.45;;;4.30;;
68803;SDS011;55787;52.678;13.314;2023-04-01T11:38:04;10.43;;;4.10;;
68803;SDS011;55787;52.678;13.314;2023-04-01T11:40:42;10.50;;;4.10;;
68803;SDS011;55787;52.678;13.314;2023-04-01T11:47:04;10.43;;;4.65;;
68803;SDS011;55787;52.678;13.314;2023-04-01T11:51:55;11.50;;;4.50;;
68803;SDS011;55787;52.678;13.314;2023-04-01T12:00:14;10.02;;;3.78;;
68803;SDS011;55787;52.678;13.314;2023-04-01T12:09:16;10.38;;;3.97;;
68803;SDS011;55787;52.678;13.314;2023-04-01T12:14:31;10.65;;;3.80;;
68803;SDS011;55787;52.678;13.314;2023-04-01T12:19:51;10.15;;;3.88;;
68803;SDS011;55787;52.678;13.314;2023-04-01T12:25:46;10.55;;;4.28;;
68803;SDS011;55787;52.678;13.314;2023-04-01T12:45:22;8.77;;;3.50;;
68803;SDS011;55787;52.678;13.314;2023-04-01T12:53:30;9.30;;;3.03;;
68803;SDS011;55787;52.678;13.314;2023-04-01T12:56:09;8.45;;;2.88;;
68803;SDS011;55787;52.678;13.314;2023-04-01T12:59:14;7.78;;;2.47;;
68803;SDS011;55787;52.678;13.314;2023-04-01T13:01:52;8.85;;;2.50;;
68803;SDS011;55787;52.678;13.314;2023-04-01T13:04:39;8.07;;;2.58;;
68803;SDS011;55787;52.678;13.314;2023-04-01T13:24:08;9.13;;;3.40;;
68803;SDS011;55787;52.678;13.314;2023-04-01T13:29:27;8.25;;;2.90;;
68803;SDS011;55787;52.678;13.314;2023-04-01T13:40:23;8.77;;;3.33;;
68803;SDS011;55787;52.678;13.314;2023-04-01T13:51:27;9.48;;;3.22;;
68803;SDS011;55787;52.678;13.314;2023-04-01T13:57:16;7.97;;;2.88;;
68803;SDS011;55787;52.678;13.314;2023-04-01T14:03:07;9.43;;;3.40;;
68803;SDS011;55787;52.678;13.314;2023-04-01T14:08:36;10.02;;;3.45;;
68803;SDS011;55787;52.678;13.314;2023-04-01T14:11:26;8.07;;;2.90;;
68803;SDS011;55787;52.678;13.314;2023-04-01T14:28:15;10.15;;;3.88;;
68803;SDS011;55787;52.678;13.314;2023-04-01T14:33:58;8.55;;;3.15;;
68803;SDS011;55787;52.678;13.314;2023-04-01T14:36:41;8.85;;;3.38;;
68803;SDS011;55787;52.678;13.314;2023-04-01T14:39:15;10.13;;;3.78;;
68803;SDS011;55787;52.678;13.314;2023-04-01T14:42:14;11.27;;;4.10;;
68803;SDS011;55787;52.678;13.314;2023-04-01T14:47:53;9.65;;;2.83;;
68803;SDS011;55787;52.678;13.314;2023-04-01T14:50:23;11.65;;;4.35;;
68803;SDS011;55787;52.678;13.314;2023-04-01T14:56:00;9.10;;;3.47;;
68803;SDS011;55787;52.678;13.314;2023-04-01T14:58:43;9.40;;;3.03;;
68803;SDS011;55787;52.678;13.314;2023-04-01T15:01:18;9.18;;;3.40;;
68803;SDS011;55787;52.678;13.314;2023-04-01T15:04:23;8.60;;;3.40;;
68803;SDS011;55787;52.678;13.314;2023-04-01T15:07:29;8.40;;;2.75;;
68803;SDS011;55787;52.678;13.314;2023-04-01T15:13:13;10.15;;;3.42;;
68803;SDS011;55787;52.678;13.314;2023-04-01T15:16:10;8.10;;;3.10;;
68803;SDS011;55787;52.678;13.314;2023-04-01T15:24:23;8.77;;;2.60;;
68803;SDS011;55787;52.678;13.314;2023-04-01T15:31:58;9.82;;;2.90;;
68803;SDS011;55787;52.678;13.314;2023-04-01T15:34:41;8.63;;;3.08;;
68803;SDS011;55787;52.678;13.314;2023-04-01T15:37:21;8.65;;;2.85;;
68803;SDS011;55787;52.678;13.314;2023-04-01T15:40:00;7.60;;;2.10;;
68803;SDS011;55787;52.678;13.314;2023-04-01T16:20:34;10.37;;;3.87;;
68803;SDS011;55787;52.678;13.314;2023-04-01T16:25:54;9.55;;;3.30;;
68803;SDS011;55787;52.678;13.314;2023-04-01T16:28:36;8.32;;;3.00;;
68803;SDS011;55787;52.678;13.314;2023-04-01T16:37:07;9.63;;;3.05;;
68803;SDS011;55787;52.678;13.314;2023-04-01T16:43:13;7.40;;;2.60;;
68803;SDS011;55787;52.678;13.314;2023-04-01T16:46:02;9.95;;;3.15;;
68803;SDS011;55787;52.678;13.314;2023-04-01T16:51:25;7.85;;;2.67;;
68803;SDS011;55787;52.678;13.314;2023-04-01T16:54:06;7.85;;;2.78;;
68803;SDS011;55787;52.678;13.314;2023-04-01T16:59:26;8.93;;;3.20;;
68803;SDS011;55787;52.678;13.314;2023-04-01T17:02:08;9.57;;;3.38;;
68803;SDS011;55787;52.678;13.314;2023-04-01T17:18:59;7.05;;;1.95;;
68803;SDS011;55787;52.678;13.314;2023-04-01T17:24:18;7.72;;;2.25;;
68803;SDS011;55787;52.678;13.314;2023-04-01T17:33:25;8.73;;;2.72;;
68803;SDS011;55787;52.678;13.314;2023-04-01T17:55:06;11.93;;;4.30;;
68803;SDS011;55787;52.678;13.314;2023-04-01T17:58:02;12.87;;;4.10;;
68803;SDS011;55787;52.678;13.314;2023-04-01T18:12:18;13.33;;;5.30;;
68803;SDS011;55787;52.678;13.314;2023-04-01T18:14:59;12.88;;;3.90;;
68803;SDS011;55787;52.678;13.314;2023-04-01T18:20:37;12.25;;;4.03;;
68803;SDS011;55787;52.678;13.314;2023-04-01T18:25:44;12.43;;;3.90;;
68803;SDS011;55787;52.678;13.314;2023-04-01T18:28:20;11.05;;;3.97;;
68803;SDS011;55787;52.678;13.314;2023-04-01T18:31:04;11.95;;;3.30;;
68803;SDS011;55787;52.678;13.314;2023-04-01T18:39:02;9.10;;;3.50;;
68803;SDS011;55787;52.678;13.314;2023-04-01T18:44:18;10.38;;;3.45;;
68803;SDS011;55787;52.678;13.314;2023-04-01T18:46:59;13.80;;;4.20;;
68803;SDS011;55787;52.678;13.314;2023-04-01T18:49:39;11.38;;;3.83;;
68803;SDS011;55787;52.678;13.314;2023-04-01T18:57:39;13.23;;;4.15;;
68803;SDS011;55787;52.678;13.314;2023-04-01T19:03:02;11.38;;;3.72;;
68803;SDS011;55787;52.678;13.314;2023-04-01T19:05:38;13.37;;;4.27;;
68803;SDS011;55787;52.678;13.314;2023-04-01T19:08:25;12.07;;;4.03;;
68803;SDS011;55787;52.678;13.314;2023-04-01T19:11:02;14.02;;;4.60;;
68803;SDS011;55787;52.678;13.314;2023-04-01T19:16:12;15.70;;;4.78;;
68803;SDS011;55787;52.678;13.314;2023-04-01T19:50:55;12.73;;;4.28;;
68803;SDS011;55787;52.678;13.314;2023-04-01T19:56:13;14.32;;;3.92;;
68803;SDS011;55787;52.678;13.314;2023-04-01T19:58:45;14.43;;;4.67;;
68803;SDS011;55787;52.678;13.314;2023-04-01T20:01:28;13.93;;;4.38;;
68803;SDS011;55787;52.678;13.314;2023-04-01T20:04:13;14.32;;;4.90;;
68803;SDS011;55787;52.678;13.314;2023-04-01T20:06:50;13.07;;;4.25;;
68803;SDS011;55787;52.678;13.314;2023-04-01T20:11:58;13.30;;;4.60;;
68803;SDS011;55787;52.678;13.314;2023-04-01T20:14:36;14.45;;;4.68;;
68803;SDS011;55787;52.678;13.314;2023-04-01T20:25:12;13.85;;;4.25;;
68803;SDS011;55787;52.678;13.314;2023-04-01T20:27:55;11.48;;;3.95;;
68803;SDS011;55787;52.678;13.314;2023-04-01T20:36:12;10.85;;;3.92;;
68803;SDS011;55787;52.678;13.314;2023-04-01T20:41:49;12.13;;;3.75;;
68803;SDS011;55787;52.678;13.314;2023-04-01T20:52:57;12.57;;;4.10;;
68803;SDS011;55787;52.678;13.314;2023-04-01T20:58:16;11.73;;;3.60;;
68803;SDS011;55787;52.678;13.314;2023-04-01T21:01:03;12.45;;;3.60;;
68803;SDS011;55787;52.678;13.314;2023-04-01T21:09:05;12.15;;;3.50;;
68803;SDS011;55787;52.678;13.314;2023-04-01T21:18:13;10.10;;;3.35;;
68803;SDS011;55787;52.678;13.314;2023-04-01T21:57:52;9.55;;;2.97;;
68803;SDS011;55787;52.678;13.314;2023-04-01T22:03:17;10.00;;;2.77;;
68803;SDS011;55787;52.678;13.314;2023-04-01T22:06:06;9.32;;;2.92;;
68803;SDS011;55787;52.678;13.314;2023-04-01T22:09:10;10.07;;;2.90;;
68803;SDS011;55787;52.678;13.314;2023-04-01T22:11:46;8.88;;;2.90;;
68803;SDS011;55787;52.678;13.314;2023-04-01T22:14:18;8.85;;;2.78;;
68803;SDS011;55787;52.678;13.314;2023-04-01T22:16:56;10.40;;;3.20;;
68803;SDS011;55787;52.678;13.314;2023-04-01T22:22:08;9.02;;;2.80;;
68803;SDS011;55787;52.678;13.314;2023-04-01T22:27:30;9.60;;;3.00;;
68803;SDS011;55787;52.678;13.314;2023-04-01T22:44:09;7.63;;;2.23;;
68803;SDS011;55787;52.678;13.314;2023-04-01T22:52:47;10.88;;;2.88;;
68803;SDS011;55787;52.678;13.314;2023-04-01T22:55:22;8.35;;;2.55;;
68803;SDS011;55787;52.678;13.314;2023-04-01T22:57:52;8.88;;;2.40;;
68803;SDS011;55787;52.678;13.314;2023-04-01T23:03:08;10.40;;;2.85;;
68803;SDS011;55787;52.678;13.314;2023-04-01T23:06:04;9.57;;;2.45;;
68803;SDS011;55787;52.678;13.314;2023-04-01T23:11:33;8.82;;;2.40;;
68803;SDS011;55787;52.678;13.314;2023-04-01T23:17:30;8.65;;;2.70;;
68803;SDS011;55787;52.678;13.314;2023-04-01T23:36:02;7.80;;;2.17;;
68803;SDS011;55787;52.678;13.314;2023-04-01T23:38:40;8.07;;;1.97;;
68803;SDS011;55787;52.678;13.314;2023-04-01T23:41:25;7.78;;;1.70;;
68803;SDS011;55787;52.678;13.314;2023-04-01T23:43:56;8.30;;;2.08;;
68803;SDS011;55787;52.678;13.314;2023-04-01T23:46:26;9.38;;;1.95;;
68803;SDS011;55787;52.678;13.314;2023-04-01T23:48:55;8.60;;;2.03;;
68803;SDS011;55787;52.678;13.314;2023-04-01T23:51:23;7.63;;;1.70;;
68803;SDS011;55787;52.678;13.314;2023-04-01T23:54:01;6.63;;;1.58;;
68803;SDS011;55787;52.678;13.314;2023-04-01T23:56:34;7.80;;;1.98;;
68803;SDS011;55787;52.678;13.314;2023-04-01T23:59:09;7.78;;;2.00;;
